sensor_id;sensor_type;location;lat;lon;timestamp;temperature;humidity
9640;DHT22;51745;50.872;4.732;2023-03-19T00:01:42;9.30;99.90
9640;DHT22;51745;50.872;4.732;2023-03-19T00:04:35;9.40;99.90
9640;DHT22;51745;50.872;4.732;2023-03-19T00:07:23;9.40;99.90
9640;DHT22;51745;50.872;4.732;2023-03-19T00:10:14;10.20;99.90
9640;DHT22;51745;50.872;4.732;2023-03-19T00:13:03;9.60;99.90
9640;DHT22;51745;50.872;4.732;2023-03-19T00:15:51;9.40;99.90
9640;DHT22;51745;50.872;4.732;2023-03-19T00:18:38;9.30;99.90
9640;DHT22;51745;50.872;4.732;2023-03-19T00:21:26;8.60;99.90
9640;DHT22;51745;50.872;4.732;2023-03-19T00:24:16;9.70;99.90
9640;DHT22;51745;50.872;4.732;2023-03-19T00:27:05;9.60;99.90
9640;DHT22;51745;50.872;4.732;2023-03-19T00:29:53;9.50;99.90
9640;DHT22;51745;50.872;4.732;2023-03-19T00:32:41;11.50;99.90
9640;DHT22;51745;50.872;4.732;2023-03-19T00:35:29;9.70;99.90
9640;DHT22;51745;50.872;4.732;2023-03-19T00:38:17;9.60;99.90
9640;DHT22;51745;50.872;4.732;2023-03-19T00:41:05;9.50;99.90
9640;DHT22;51745;50.872;4.732;2023-03-19T00:43:54;9.60;99.90
9640;DHT22;51745;50.872;4.732;2023-03-19T00:46:43;9.40;99.90
9640;DHT22;51745;50.872;4.732;2023-03-19T00:49:31;9.40;99.90
9640;DHT22;51745;50.872;4.732;2023-03-19T00:52:20;11.60;99.90
9640;DHT22;51745;50.872;4.732;2023-03-19T00:55:08;9.60;99.90
9640;DHT22;51745;50.872;4.732;2023-03-19T00:57:55;9.50;99.90
9640;DHT22;51745;50.872;4.732;2023-03-19T01:00:45;11.10;99.90
9640;DHT22;51745;50.872;4.732;2023-03-19T01:03:33;9.60;99.90
9640;DHT22;51745;50.872;4.732;2023-03-19T01:06:24;9.50;99.90
9640;DHT22;51745;50.872;4.732;2023-03-19T01:09:12;9.60;99.90
9640;DHT22;51745;50.872;4.732;2023-03-19T01:12:00;9.60;99.90
9640;DHT22;51745;50.872;4.732;2023-03-19T01:14:50;9.80;99.90
9640;DHT22;51745;50.872;4.732;2023-03-19T01:17:41;9.60;99.90
9640;DHT22;51745;50.872;4.732;2023-03-19T01:20:30;9.70;99.90
9640;DHT22;51745;50.872;4.732;2023-03-19T01:23:18;10.50;99.90
9640;DHT22;51745;50.872;4.732;2023-03-19T01:26:06;9.80;99.90
9640;DHT22;51745;50.872;4.732;2023-03-19T01:28:54;9.80;99.90
9640;DHT22;51745;50.872;4.732;2023-03-19T01:31:43;9.80;99.90
9640;DHT22;51745;50.872;4.732;2023-03-19T01:34:55;9.80;99.90
9640;DHT22;51745;50.872;4.732;2023-03-19T01:37:43;9.90;99.90
9640;DHT22;51745;50.872;4.732;2023-03-19T01:40:31;9.80;99.90
9640;DHT22;51745;50.872;4.732;2023-03-19T01:43:20;9.70;99.90
9640;DHT22;51745;50.872;4.732;2023-03-19T01:46:13;9.80;99.90
9640;DHT22;51745;50.872;4.732;2023-03-19T01:49:22;9.90;99.90
9640;DHT22;51745;50.872;4.732;2023-03-19T01:52:28;11.00;99.90
9640;DHT22;51745;50.872;4.732;2023-03-19T01:55:34;9.80;99.90
9640;DHT22;51745;50.872;4.732;2023-03-19T01:58:34;10.00;99.90
9640;DHT22;51745;50.872;4.732;2023-03-19T02:01:55;10.10;99.90
9640;DHT22;51745;50.872;4.732;2023-03-19T02:04:45;7.70;99.90
9640;DHT22;51745;50.872;4.732;2023-03-19T02:07:36;10.00;99.90
9640;DHT22;51745;50.872;4.732;2023-03-19T02:10:24;10.00;99.90
9640;DHT22;51745;50.872;4.732;2023-03-19T02:13:13;10.10;99.90
9640;DHT22;51745;50.872;4.732;2023-03-19T02:16:04;10.40;99.90
9640;DHT22;51745;50.872;4.732;2023-03-19T02:18:52;10.50;99.90
9640;DHT22;51745;50.872;4.732;2023-03-19T02:21:40;10.00;99.90
9640;DHT22;51745;50.872;4.732;2023-03-19T02:24:32;10.00;99.90
9640;DHT22;51745;50.872;4.732;2023-03-19T02:27:30;10.00;99.90
9640;DHT22;51745;50.872;4.732;2023-03-19T02:30:18;12.40;99.90
9640;DHT22;51745;50.872;4.732;2023-03-19T02:33:08;10.90;99.90
9640;DHT22;51745;50.872;4.732;2023-03-19T02:35:56;10.50;99.90
9640;DHT22;51745;50.872;4.732;2023-03-19T02:38:44;10.10;99.90
9640;DHT22;51745;50.872;4.732;2023-03-19T02:41:32;10.10;99.90
9640;DHT22;51745;50.872;4.732;2023-03-19T02:44:24;10.10;99.90
9640;DHT22;51745;50.872;4.732;2023-03-19T02:47:15;10.10;99.90
9640;DHT22;51745;50.872;4.732;2023-03-19T02:50:03;11.20;99.90
9640;DHT22;51745;50.872;4.732;2023-03-19T02:52:51;10.10;99.90
9640;DHT22;51745;50.872;4.732;2023-03-19T02:55:42;12.20;99.90
9640;DHT22;51745;50.872;4.732;2023-03-19T02:58:29;10.10;99.90
9640;DHT22;51745;50.872;4.732;2023-03-19T03:01:19;12.80;99.90
9640;DHT22;51745;50.872;4.732;2023-03-19T03:04:06;10.10;99.90
9640;DHT22;51745;50.872;4.732;2023-03-19T03:06:54;10.10;99.90
9640;DHT22;51745;50.872;4.732;2023-03-19T03:09:42;11.30;99.90
9640;DHT22;51745;50.872;4.732;2023-03-19T03:12:31;10.10;99.90
9640;DHT22;51745;50.872;4.732;2023-03-19T03:15:18;9.60;99.90
9640;DHT22;51745;50.872;4.732;2023-03-19T03:18:07;10.30;99.90
9640;DHT22;51745;50.872;4.732;2023-03-19T03:20:57;11.70;99.90
9640;DHT22;51745;50.872;4.732;2023-03-19T03:23:45;12.40;99.90
9640;DHT22;51745;50.872;4.732;2023-03-19T03:26:33;10.40;99.90
9640;DHT22;51745;50.872;4.732;2023-03-19T03:29:24;10.20;99.90
9640;DHT22;51745;50.872;4.732;2023-03-19T03:32:12;10.30;99.90
9640;DHT22;51745;50.872;4.732;2023-03-19T03:35:01;10.70;99.90
9640;DHT22;51745;50.872;4.732;2023-03-19T03:37:49;9.70;99.90
9640;DHT22;51745;50.872;4.732;2023-03-19T03:40:39;10.40;99.90
9640;DHT22;51745;50.872;4.732;2023-03-19T03:43:27;10.10;99.90
9640;DHT22;51745;50.872;4.732;2023-03-19T03:46:16;10.30;99.90
9640;DHT22;51745;50.872;4.732;2023-03-19T03:49:07;10.30;99.90
9640;DHT22;51745;50.872;4.732;2023-03-19T03:51:57;10.30;99.90
9640;DHT22;51745;50.872;4.732;2023-03-19T03:54:44;10.30;99.90
9640;DHT22;51745;50.872;4.732;2023-03-19T03:57:33;10.30;99.90
9640;DHT22;51745;50.872;4.732;2023-03-19T04:00:21;10.30;99.90
9640;DHT22;51745;50.872;4.732;2023-03-19T04:03:09;12.10;99.90
9640;DHT22;51745;50.872;4.732;2023-03-19T04:05:58;10.80;99.90
9640;DHT22;51745;50.872;4.732;2023-03-19T04:08:51;10.20;99.90
9640;DHT22;51745;50.872;4.732;2023-03-19T04:11:40;10.50;99.90
9640;DHT22;51745;50.872;4.732;2023-03-19T04:14:29;10.30;99.90
9640;DHT22;51745;50.872;4.732;2023-03-19T04:17:19;10.30;99.90
9640;DHT22;51745;50.872;4.732;2023-03-19T04:20:09;10.30;99.90
9640;DHT22;51745;50.872;4.732;2023-03-19T04:23:01;10.30;99.90
9640;DHT22;51745;50.872;4.732;2023-03-19T04:25:51;11.50;99.90
9640;DHT22;51745;50.872;4.732;2023-03-19T04:28:39;10.20;99.90
9640;DHT22;51745;50.872;4.732;2023-03-19T04:31:27;10.30;99.90
9640;DHT22;51745;50.872;4.732;2023-03-19T04:34:20;10.30;99.90
9640;DHT22;51745;50.872;4.732;2023-03-19T04:37:08;10.40;99.90
9640;DHT22;51745;50.872;4.732;2023-03-19T04:40:04;10.30;99.90
9640;DHT22;51745;50.872;4.732;2023-03-19T04:42:55;10.20;99.90
9640;DHT22;51745;50.872;4.732;2023-03-19T04:45:49;10.20;99.90
9640;DHT22;51745;50.872;4.732;2023-03-19T04:48:39;10.10;99.90
9640;DHT22;51745;50.872;4.732;2023-03-19T04:51:27;10.10;99.90
9640;DHT22;51745;50.872;4.732;2023-03-19T04:54:15;9.80;99.90
9640;DHT22;51745;50.872;4.732;2023-03-19T04:57:02;9.80;99.90
9640;DHT22;51745;50.872;4.732;2023-03-19T04:59:56;9.60;99.90
9640;DHT22;51745;50.872;4.732;2023-03-19T05:02:43;9.50;99.90
9640;DHT22;51745;50.872;4.732;2023-03-19T05:05:32;9.30;99.90
9640;DHT22;51745;50.872;4.732;2023-03-19T05:08:24;9.10;99.90
9640;DHT22;51745;50.872;4.732;2023-03-19T05:11:12;9.00;99.90
9640;DHT22;51745;50.872;4.732;2023-03-19T05:14:15;10.00;99.90
9640;DHT22;51745;50.872;4.732;2023-03-19T05:17:21;8.70;99.90
9640;DHT22;51745;50.872;4.732;2023-03-19T05:20:19;8.50;99.90
9640;DHT22;51745;50.872;4.732;2023-03-19T05:23:15;8.50;99.90
9640;DHT22;51745;50.872;4.732;2023-03-19T05:26:23;8.50;99.90
9640;DHT22;51745;50.872;4.732;2023-03-19T05:29:35;8.50;99.90
9640;DHT22;51745;50.872;4.732;2023-03-19T05:32:50;8.50;99.90
9640;DHT22;51745;50.872;4.732;2023-03-19T05:35:55;8.60;99.90
9640;DHT22;51745;50.872;4.732;2023-03-19T05:38:52;8.70;99.90
9640;DHT22;51745;50.872;4.732;2023-03-19T05:41:49;8.70;99.90
9640;DHT22;51745;50.872;4.732;2023-03-19T05:44:43;8.60;99.90
9640;DHT22;51745;50.872;4.732;2023-03-19T05:47:56;8.40;99.90
9640;DHT22;51745;50.872;4.732;2023-03-19T05:50:49;8.20;99.90
9640;DHT22;51745;50.872;4.732;2023-03-19T05:53:39;8.10;99.90
9640;DHT22;51745;50.872;4.732;2023-03-19T05:57:05;7.90;99.90
9640;DHT22;51745;50.872;4.732;2023-03-19T05:59:55;7.90;99.90
9640;DHT22;51745;50.872;4.732;2023-03-19T06:02:43;7.80;99.90
9640;DHT22;51745;50.872;4.732;2023-03-19T06:05:38;7.90;99.90
9640;DHT22;51745;50.872;4.732;2023-03-19T06:08:49;7.90;99.90
9640;DHT22;51745;50.872;4.732;2023-03-19T06:11:58;8.30;99.90
9640;DHT22;51745;50.872;4.732;2023-03-19T06:15:06;8.10;99.90
9640;DHT22;51745;50.872;4.732;2023-03-19T06:18:15;8.20;99.90
9640;DHT22;51745;50.872;4.732;2023-03-19T06:21:05;10.50;99.90
9640;DHT22;51745;50.872;4.732;2023-03-19T06:24:10;8.40;99.90
9640;DHT22;51745;50.872;4.732;2023-03-19T06:26:58;8.50;99.90
9640;DHT22;51745;50.872;4.732;2023-03-19T06:29:47;8.40;99.90
9640;DHT22;51745;50.872;4.732;2023-03-19T06:32:40;8.60;99.90
9640;DHT22;51745;50.872;4.732;2023-03-19T06:35:31;8.60;99.90
9640;DHT22;51745;50.872;4.732;2023-03-19T06:38:20;8.70;99.90
9640;DHT22;51745;50.872;4.732;2023-03-19T06:41:08;8.80;99.90
9640;DHT22;51745;50.872;4.732;2023-03-19T06:43:57;8.80;99.90
9640;DHT22;51745;50.872;4.732;2023-03-19T06:46:48;8.80;99.90
9640;DHT22;51745;50.872;4.732;2023-03-19T06:49:35;8.90;99.90
9640;DHT22;51745;50.872;4.732;2023-03-19T06:52:24;8.80;99.90
9640;DHT22;51745;50.872;4.732;2023-03-19T06:55:14;8.80;99.90
9640;DHT22;51745;50.872;4.732;2023-03-19T06:58:03;8.70;99.90
9640;DHT22;51745;50.872;4.732;2023-03-19T07:00:51;8.70;99.90
9640;DHT22;51745;50.872;4.732;2023-03-19T07:03:39;8.60;99.90
9640;DHT22;51745;50.872;4.732;2023-03-19T07:06:28;8.70;99.90
9640;DHT22;51745;50.872;4.732;2023-03-19T07:09:16;8.70;99.90
9640;DHT22;51745;50.872;4.732;2023-03-19T07:12:06;8.70;99.90
9640;DHT22;51745;50.872;4.732;2023-03-19T07:14:57;8.70;99.90
9640;DHT22;51745;50.872;4.732;2023-03-19T07:17:45;8.70;99.90
9640;DHT22;51745;50.872;4.732;2023-03-19T07:20:33;8.70;99.90
9640;DHT22;51745;50.872;4.732;2023-03-19T07:23:22;8.70;99.90
9640;DHT22;51745;50.872;4.732;2023-03-19T07:26:09;8.80;99.90
9640;DHT22;51745;50.872;4.732;2023-03-19T07:29:00;8.80;99.90
9640;DHT22;51745;50.872;4.732;2023-03-19T07:31:48;8.80;99.90
9640;DHT22;51745;50.872;4.732;2023-03-19T07:34:36;8.80;99.90
9640;DHT22;51745;50.872;4.732;2023-03-19T07:37:24;8.80;99.90
9640;DHT22;51745;50.872;4.732;2023-03-19T07:43:02;9.00;99.90
9640;DHT22;51745;50.872;4.732;2023-03-19T07:45:52;9.00;99.90
9640;DHT22;51745;50.872;4.732;2023-03-19T07:48:41;9.00;99.90
9640;DHT22;51745;50.872;4.732;2023-03-19T07:51:28;9.10;99.90
9640;DHT22;51745;50.872;4.732;2023-03-19T07:54:17;7.70;99.90
9640;DHT22;51745;50.872;4.732;2023-03-19T07:57:05;9.40;99.90
9640;DHT22;51745;50.872;4.732;2023-03-19T07:59:53;9.40;99.90
9640;DHT22;51745;50.872;4.732;2023-03-19T08:02:42;9.40;99.90
9640;DHT22;51745;50.872;4.732;2023-03-19T08:05:30;9.50;99.90
9640;DHT22;51745;50.872;4.732;2023-03-19T08:08:18;9.50;99.90
9640;DHT22;51745;50.872;4.732;2023-03-19T08:11:06;9.50;99.90
9640;DHT22;51745;50.872;4.732;2023-03-19T08:13:54;9.60;99.90
9640;DHT22;51745;50.872;4.732;2023-03-19T08:16:42;9.70;99.90
9640;DHT22;51745;50.872;4.732;2023-03-19T08:19:34;9.70;99.90
9640;DHT22;51745;50.872;4.732;2023-03-19T08:22:21;9.80;99.90
9640;DHT22;51745;50.872;4.732;2023-03-19T08:25:11;9.80;99.90
9640;DHT22;51745;50.872;4.732;2023-03-19T08:28:01;9.80;99.90
9640;DHT22;51745;50.872;4.732;2023-03-19T08:30:48;9.90;99.90
9640;DHT22;51745;50.872;4.732;2023-03-19T08:33:37;10.00;99.90
9640;DHT22;51745;50.872;4.732;2023-03-19T08:36:27;10.10;99.90
9640;DHT22;51745;50.872;4.732;2023-03-19T08:39:14;10.20;99.90
9640;DHT22;51745;50.872;4.732;2023-03-19T08:42:02;9.40;99.90
9640;DHT22;51745;50.872;4.732;2023-03-19T08:44:49;10.30;99.90
9640;DHT22;51745;50.872;4.732;2023-03-19T08:47:37;10.50;99.90
9640;DHT22;51745;50.872;4.732;2023-03-19T08:50:25;10.50;99.90
9640;DHT22;51745;50.872;4.732;2023-03-19T08:53:14;10.50;99.90
9640;DHT22;51745;50.872;4.732;2023-03-19T08:56:03;10.60;99.90
9640;DHT22;51745;50.872;4.732;2023-03-19T08:58:51;10.70;99.90
9640;DHT22;51745;50.872;4.732;2023-03-19T09:01:39;10.70;99.90
9640;DHT22;51745;50.872;4.732;2023-03-19T09:04:27;10.90;99.90
9640;DHT22;51745;50.872;4.732;2023-03-19T09:07:15;11.40;99.90
9640;DHT22;51745;50.872;4.732;2023-03-19T09:10:05;10.90;99.90
9640;DHT22;51745;50.872;4.732;2023-03-19T09:12:53;11.00;99.90
9640;DHT22;51745;50.872;4.732;2023-03-19T09:15:40;11.00;99.90
9640;DHT22;51745;50.872;4.732;2023-03-19T09:18:28;11.50;99.90
9640;DHT22;51745;50.872;4.732;2023-03-19T09:21:17;11.30;99.90
9640;DHT22;51745;50.872;4.732;2023-03-19T09:24:05;11.30;99.90
9640;DHT22;51745;50.872;4.732;2023-03-19T09:26:55;11.50;99.90
9640;DHT22;51745;50.872;4.732;2023-03-19T09:29:44;12.20;99.90
9640;DHT22;51745;50.872;4.732;2023-03-19T09:32:33;11.60;99.90
9640;DHT22;51745;50.872;4.732;2023-03-19T09:35:23;12.20;99.90
9640;DHT22;51745;50.872;4.732;2023-03-19T09:38:16;12.30;99.90
9640;DHT22;51745;50.872;4.732;2023-03-19T09:41:06;12.50;99.90
9640;DHT22;51745;50.872;4.732;2023-03-19T09:43:58;12.40;99.90
9640;DHT22;51745;50.872;4.732;2023-03-19T09:46:49;12.30;99.90
9640;DHT22;51745;50.872;4.732;2023-03-19T09:49:41;12.20;99.90
9640;DHT22;51745;50.872;4.732;2023-03-19T09:52:35;12.40;99.90
9640;DHT22;51745;50.872;4.732;2023-03-19T09:55:29;11.10;99.90
9640;DHT22;51745;50.872;4.732;2023-03-19T09:58:19;14.50;99.90
9640;DHT22;51745;50.872;4.732;2023-03-19T10:01:11;13.20;99.90
9640;DHT22;51745;50.872;4.732;2023-03-19T10:07:33;12.70;99.90
9640;DHT22;51745;50.872;4.732;2023-03-19T10:10:27;13.70;99.90
9640;DHT22;51745;50.872;4.732;2023-03-19T10:13:19;13.90;99.90
9640;DHT22;51745;50.872;4.732;2023-03-19T10:16:18;13.80;99.90
9640;DHT22;51745;50.872;4.732;2023-03-19T10:19:08;13.90;99.90
9640;DHT22;51745;50.872;4.732;2023-03-19T10:21:58;13.90;99.90
9640;DHT22;51745;50.872;4.732;2023-03-19T10:24:50;14.20;99.90
9640;DHT22;51745;50.872;4.732;2023-03-19T10:27:40;14.50;99.90
9640;DHT22;51745;50.872;4.732;2023-03-19T10:30:28;14.80;99.90
9640;DHT22;51745;50.872;4.732;2023-03-19T10:33:22;15.10;99.90
9640;DHT22;51745;50.872;4.732;2023-03-19T10:36:13;14.40;99.90
9640;DHT22;51745;50.872;4.732;2023-03-19T10:39:03;14.60;99.90
9640;DHT22;51745;50.872;4.732;2023-03-19T10:41:58;13.80;99.90
9640;DHT22;51745;50.872;4.732;2023-03-19T10:44:48;13.30;99.90
9640;DHT22;51745;50.872;4.732;2023-03-19T10:47:37;13.00;99.90
9640;DHT22;51745;50.872;4.732;2023-03-19T10:50:29;12.90;99.90
9640;DHT22;51745;50.872;4.732;2023-03-19T10:53:25;13.10;99.90
9640;DHT22;51745;50.872;4.732;2023-03-19T10:56:17;12.90;99.90
9640;DHT22;51745;50.872;4.732;2023-03-19T10:59:09;13.00;99.90
9640;DHT22;51745;50.872;4.732;2023-03-19T11:02:13;13.20;99.90
9640;DHT22;51745;50.872;4.732;2023-03-19T11:05:05;13.50;99.90
9640;DHT22;51745;50.872;4.732;2023-03-19T11:07:56;14.10;99.90
9640;DHT22;51745;50.872;4.732;2023-03-19T11:10:44;14.80;99.90
9640;DHT22;51745;50.872;4.732;2023-03-19T11:13:34;14.40;99.90
9640;DHT22;51745;50.872;4.732;2023-03-19T11:16:22;14.20;99.90
9640;DHT22;51745;50.872;4.732;2023-03-19T11:19:15;13.90;99.90
9640;DHT22;51745;50.872;4.732;2023-03-19T11:22:09;14.10;99.90
9640;DHT22;51745;50.872;4.732;2023-03-19T11:25:04;14.10;99.90
9640;DHT22;51745;50.872;4.732;2023-03-19T11:28:00;14.70;99.90
9640;DHT22;51745;50.872;4.732;2023-03-19T11:30:52;15.10;99.90
9640;DHT22;51745;50.872;4.732;2023-03-19T11:34:01;14.50;99.90
9640;DHT22;51745;50.872;4.732;2023-03-19T11:36:55;14.80;99.90
9640;DHT22;51745;50.872;4.732;2023-03-19T11:39:50;14.20;99.90
9640;DHT22;51745;50.872;4.732;2023-03-19T11:42:46;14.30;99.90
9640;DHT22;51745;50.872;4.732;2023-03-19T11:45:38;14.50;99.90
9640;DHT22;51745;50.872;4.732;2023-03-19T11:51:33;14.30;99.90
9640;DHT22;51745;50.872;4.732;2023-03-19T11:54:25;14.50;99.90
9640;DHT22;51745;50.872;4.732;2023-03-19T11:57:17;16.00;99.90
9640;DHT22;51745;50.872;4.732;2023-03-19T12:00:16;15.10;99.90
9640;DHT22;51745;50.872;4.732;2023-03-19T12:03:19;15.30;99.90
9640;DHT22;51745;50.872;4.732;2023-03-19T12:06:12;14.60;99.90
9640;DHT22;51745;50.872;4.732;2023-03-19T12:09:06;14.20;99.90
9640;DHT22;51745;50.872;4.732;2023-03-19T12:12:01;12.00;99.90
9640;DHT22;51745;50.872;4.732;2023-03-19T12:14:58;13.60;99.90
9640;DHT22;51745;50.872;4.732;2023-03-19T12:17:54;13.70;99.90
9640;DHT22;51745;50.872;4.732;2023-03-19T12:20:48;13.80;99.90
9640;DHT22;51745;50.872;4.732;2023-03-19T12:23:41;13.80;99.90
9640;DHT22;51745;50.872;4.732;2023-03-19T12:26:34;14.50;99.90
9640;DHT22;51745;50.872;4.732;2023-03-19T12:29:30;15.40;99.90
9640;DHT22;51745;50.872;4.732;2023-03-19T12:32:25;15.10;99.90
9640;DHT22;51745;50.872;4.732;2023-03-19T12:35:23;14.90;99.90
9640;DHT22;51745;50.872;4.732;2023-03-19T12:38:14;14.50;99.90
9640;DHT22;51745;50.872;4.732;2023-03-19T12:41:04;14.30;99.90
9640;DHT22;51745;50.872;4.732;2023-03-19T12:43:57;13.80;99.90
9640;DHT22;51745;50.872;4.732;2023-03-19T12:46:50;13.20;99.90
9640;DHT22;51745;50.872;4.732;2023-03-19T12:49:45;13.10;99.90
9640;DHT22;51745;50.872;4.732;2023-03-19T12:52:37;13.00;99.90
9640;DHT22;51745;50.872;4.732;2023-03-19T12:55:29;12.90;99.90
9640;DHT22;51745;50.872;4.732;2023-03-19T12:58:24;12.80;99.90
9640;DHT22;51745;50.872;4.732;2023-03-19T13:01:18;12.90;99.90
9640;DHT22;51745;50.872;4.732;2023-03-19T13:04:07;13.20;99.90
9640;DHT22;51745;50.872;4.732;2023-03-19T13:06:58;13.70;99.90
9640;DHT22;51745;50.872;4.732;2023-03-19T13:09:50;14.00;99.90
9640;DHT22;51745;50.872;4.732;2023-03-19T13:12:40;14.40;99.90
9640;DHT22;51745;50.872;4.732;2023-03-19T13:15:29;14.60;99.90
9640;DHT22;51745;50.872;4.732;2023-03-19T13:18:20;14.00;99.90
9640;DHT22;51745;50.872;4.732;2023-03-19T13:21:19;14.10;99.90
9640;DHT22;51745;50.872;4.732;2023-03-19T13:24:13;14.10;99.90
9640;DHT22;51745;50.872;4.732;2023-03-19T13:27:05;13.40;99.90
9640;DHT22;51745;50.872;4.732;2023-03-19T13:29:57;13.30;99.90
9640;DHT22;51745;50.872;4.732;2023-03-19T13:32:47;15.40;99.90
9640;DHT22;51745;50.872;4.732;2023-03-19T13:35:36;13.50;99.90
9640;DHT22;51745;50.872;4.732;2023-03-19T13:38:27;14.00;99.90
9640;DHT22;51745;50.872;4.732;2023-03-19T13:44:37;15.00;99.90
9640;DHT22;51745;50.872;4.732;2023-03-19T13:47:36;15.40;99.90
9640;DHT22;51745;50.872;4.732;2023-03-19T13:50:25;15.60;99.90
9640;DHT22;51745;50.872;4.732;2023-03-19T13:53:21;17.00;99.90
9640;DHT22;51745;50.872;4.732;2023-03-19T13:56:10;17.00;99.90
9640;DHT22;51745;50.872;4.732;2023-03-19T13:59:21;16.40;99.90
9640;DHT22;51745;50.872;4.732;2023-03-19T14:05:19;16.00;99.90
9640;DHT22;51745;50.872;4.732;2023-03-19T14:08:13;16.30;99.90
9640;DHT22;51745;50.872;4.732;2023-03-19T14:11:04;15.70;99.90
9640;DHT22;51745;50.872;4.732;2023-03-19T14:13:53;15.90;99.90
9640;DHT22;51745;50.872;4.732;2023-03-19T14:16:44;16.10;99.90
9640;DHT22;51745;50.872;4.732;2023-03-19T14:19:38;16.30;99.90
9640;DHT22;51745;50.872;4.732;2023-03-19T14:22:31;16.60;99.90
9640;DHT22;51745;50.872;4.732;2023-03-19T14:25:25;16.10;99.90
9640;DHT22;51745;50.872;4.732;2023-03-19T14:28:14;17.20;99.90
9640;DHT22;51745;50.872;4.732;2023-03-19T14:31:05;14.40;99.90
9640;DHT22;51745;50.872;4.732;2023-03-19T14:33:57;13.50;99.90
9640;DHT22;51745;50.872;4.732;2023-03-19T14:36:48;14.30;99.90
9640;DHT22;51745;50.872;4.732;2023-03-19T14:39:44;13.10;99.90
9640;DHT22;51745;50.872;4.732;2023-03-19T14:42:34;12.80;99.90
9640;DHT22;51745;50.872;4.732;2023-03-19T14:45:32;12.70;99.90
9640;DHT22;51745;50.872;4.732;2023-03-19T14:48:36;13.10;99.90
9640;DHT22;51745;50.872;4.732;2023-03-19T14:51:33;14.60;99.90
9640;DHT22;51745;50.872;4.732;2023-03-19T14:54:29;13.10;99.90
9640;DHT22;51745;50.872;4.732;2023-03-19T14:57:21;12.80;99.90
9640;DHT22;51745;50.872;4.732;2023-03-19T15:00:14;13.60;99.90
9640;DHT22;51745;50.872;4.732;2023-03-19T15:03:04;12.90;99.90
9640;DHT22;51745;50.872;4.732;2023-03-19T15:05:59;13.20;99.90
9640;DHT22;51745;50.872;4.732;2023-03-19T15:08:48;13.50;99.90
9640;DHT22;51745;50.872;4.732;2023-03-19T15:11:55;13.10;99.90
9640;DHT22;51745;50.872;4.732;2023-03-19T15:14:52;13.30;99.90
9640;DHT22;51745;50.872;4.732;2023-03-19T15:17:49;12.90;99.90
9640;DHT22;51745;50.872;4.732;2023-03-19T15:20:50;13.10;99.90
9640;DHT22;51745;50.872;4.732;2023-03-19T15:23:43;13.20;99.90
9640;DHT22;51745;50.872;4.732;2023-03-19T15:26:33;12.90;99.90
9640;DHT22;51745;50.872;4.732;2023-03-19T15:29:29;12.70;99.90
9640;DHT22;51745;50.872;4.732;2023-03-19T15:32:32;12.90;99.90
9640;DHT22;51745;50.872;4.732;2023-03-19T15:35:41;12.70;99.90
9640;DHT22;51745;50.872;4.732;2023-03-19T15:38:33;12.40;99.90
9640;DHT22;51745;50.872;4.732;2023-03-19T15:41:23;12.30;99.90
9640;DHT22;51745;50.872;4.732;2023-03-19T15:44:13;12.20;99.90
9640;DHT22;51745;50.872;4.732;2023-03-19T15:47:04;12.30;99.90
9640;DHT22;51745;50.872;4.732;2023-03-19T15:49:55;12.20;99.90
9640;DHT22;51745;50.872;4.732;2023-03-19T15:52:47;12.20;99.90
9640;DHT22;51745;50.872;4.732;2023-03-19T15:55:35;11.90;99.90
9640;DHT22;51745;50.872;4.732;2023-03-19T15:58:24;11.80;99.90
9640;DHT22;51745;50.872;4.732;2023-03-19T16:01:15;11.60;99.90
9640;DHT22;51745;50.872;4.732;2023-03-19T16:04:04;11.50;99.90
9640;DHT22;51745;50.872;4.732;2023-03-19T16:06:56;11.30;99.90
9640;DHT22;51745;50.872;4.732;2023-03-19T16:09:45;12.40;99.90
9640;DHT22;51745;50.872;4.732;2023-03-19T16:12:35;11.20;99.90
9640;DHT22;51745;50.872;4.732;2023-03-19T16:15:27;11.40;99.90
9640;DHT22;51745;50.872;4.732;2023-03-19T16:18:22;12.30;99.90
9640;DHT22;51745;50.872;4.732;2023-03-19T16:21:12;13.60;99.90
9640;DHT22;51745;50.872;4.732;2023-03-19T16:24:05;12.00;99.90
9640;DHT22;51745;50.872;4.732;2023-03-19T16:26:56;11.90;99.90
9640;DHT22;51745;50.872;4.732;2023-03-19T16:29:44;11.60;99.90
9640;DHT22;51745;50.872;4.732;2023-03-19T16:32:33;11.60;99.90
9640;DHT22;51745;50.872;4.732;2023-03-19T16:35:24;11.60;99.90
9640;DHT22;51745;50.872;4.732;2023-03-19T16:38:16;11.40;99.90
9640;DHT22;51745;50.872;4.732;2023-03-19T16:41:17;11.40;99.90
9640;DHT22;51745;50.872;4.732;2023-03-19T16:44:14;11.10;99.90
9640;DHT22;51745;50.872;4.732;2023-03-19T16:47:06;10.70;99.90
9640;DHT22;51745;50.872;4.732;2023-03-19T16:49:55;10.60;99.90
9640;DHT22;51745;50.872;4.732;2023-03-19T16:52:46;10.50;99.90
9640;DHT22;51745;50.872;4.732;2023-03-19T16:55:34;10.50;99.90
9640;DHT22;51745;50.872;4.732;2023-03-19T16:58:26;10.30;99.90
9640;DHT22;51745;50.872;4.732;2023-03-19T17:01:15;10.20;99.90
9640;DHT22;51745;50.872;4.732;2023-03-19T17:04:07;10.10;99.90
9640;DHT22;51745;50.872;4.732;2023-03-19T17:06:57;10.20;99.90
9640;DHT22;51745;50.872;4.732;2023-03-19T17:09:46;11.30;99.90
9640;DHT22;51745;50.872;4.732;2023-03-19T17:12:34;10.00;99.90
9640;DHT22;51745;50.872;4.732;2023-03-19T17:15:24;9.80;99.90
9640;DHT22;51745;50.872;4.732;2023-03-19T17:18:14;9.50;99.90
9640;DHT22;51745;50.872;4.732;2023-03-19T17:21:05;9.90;99.90
9640;DHT22;51745;50.872;4.732;2023-03-19T17:23:54;9.90;99.90
9640;DHT22;51745;50.872;4.732;2023-03-19T17:26:42;9.80;99.90
9640;DHT22;51745;50.872;4.732;2023-03-19T17:29:31;9.90;99.90
9640;DHT22;51745;50.872;4.732;2023-03-19T17:32:22;9.80;99.90
9640;DHT22;51745;50.872;4.732;2023-03-19T17:35:12;9.80;99.90
9640;DHT22;51745;50.872;4.732;2023-03-19T17:38:02;9.80;99.90
9640;DHT22;51745;50.872;4.732;2023-03-19T17:40:50;9.80;99.90
9640;DHT22;51745;50.872;4.732;2023-03-19T17:43:38;9.10;99.90
9640;DHT22;51745;50.872;4.732;2023-03-19T17:46:35;9.60;99.90
9640;DHT22;51745;50.872;4.732;2023-03-19T17:49:26;9.60;99.90
9640;DHT22;51745;50.872;4.732;2023-03-19T17:52:16;9.70;99.90
9640;DHT22;51745;50.872;4.732;2023-03-19T17:55:07;9.70;99.90
9640;DHT22;51745;50.872;4.732;2023-03-19T17:57:57;9.80;99.90
9640;DHT22;51745;50.872;4.732;2023-03-19T18:00:45;9.50;99.90
9640;DHT22;51745;50.872;4.732;2023-03-19T18:03:33;9.40;99.90
9640;DHT22;51745;50.872;4.732;2023-03-19T18:06:24;9.40;99.90
9640;DHT22;51745;50.872;4.732;2023-03-19T18:09:15;9.40;99.90
9640;DHT22;51745;50.872;4.732;2023-03-19T18:12:08;9.40;99.90
9640;DHT22;51745;50.872;4.732;2023-03-19T18:14:56;10.00;99.90
9640;DHT22;51745;50.872;4.732;2023-03-19T18:17:47;9.30;99.90
9640;DHT22;51745;50.872;4.732;2023-03-19T18:20:36;9.20;99.90
9640;DHT22;51745;50.872;4.732;2023-03-19T18:23:33;9.20;99.90
9640;DHT22;51745;50.872;4.732;2023-03-19T18:26:31;9.20;99.90
9640;DHT22;51745;50.872;4.732;2023-03-19T18:29:21;9.20;99.90
9640;DHT22;51745;50.872;4.732;2023-03-19T18:32:13;9.20;99.90
9640;DHT22;51745;50.872;4.732;2023-03-19T18:35:02;9.20;99.90
9640;DHT22;51745;50.872;4.732;2023-03-19T18:37:50;9.10;99.90
9640;DHT22;51745;50.872;4.732;2023-03-19T18:40:40;9.10;99.90
9640;DHT22;51745;50.872;4.732;2023-03-19T18:43:28;9.40;99.90
9640;DHT22;51745;50.872;4.732;2023-03-19T18:46:18;9.10;99.90